Davis Junction, Illinois
Current Conditions -  °F | °C
As of 4:25 AM on Friday 24 Oct 2014 (Local Time) from KRFD Reporting Station
Haze Haze  
Wind Chill: 44°   Ceiling: 200
Heat Index: 44°   Visibility: 1mi
Dew Point: 42°   Wind: 0mph
Humidity: 93%   Direction: NA
Pressure: 30.07"   Gusts: NA
Location:  42.1°N, 89.09°W
Report Text: KRFD 240925Z 00000KT 1SM R01/P6000FT BR OVC002 07/06 A3007 RMK AO2 SFC VIS 1 1/2 T00670056
Loading
Personal Weather Stations






























Interactive Weather Map
Tropical Storm Tracking
New forecast layout! Learn more

10-Day Weather Forecast

Advertisements
Track Severe Weather on mobile